createdAt,value
2022-12-27T00:02:03.394Z,1.90
2022-12-27T00:04:30.515Z,2.05
2022-12-27T00:06:57.442Z,2.10
2022-12-27T00:09:24.316Z,2.15
2022-12-27T00:11:56.344Z,2.10
2022-12-27T00:14:26.773Z,2.15
2022-12-27T00:16:54.229Z,2.13
2022-12-27T00:19:20.999Z,2.10
2022-12-27T00:21:47.700Z,2.10
2022-12-27T00:24:14.521Z,2.30
2022-12-27T00:26:41.892Z,2.42
2022-12-27T00:29:09.592Z,2.30
2022-12-27T00:31:36.963Z,2.33
2022-12-27T00:34:06.380Z,2.40
2022-12-27T00:36:34.141Z,2.50
2022-12-27T00:39:01.634Z,2.10
2022-12-27T00:41:28.686Z,2.10
2022-12-27T00:43:55.547Z,2.20
2022-12-27T00:46:22.443Z,2.50
2022-12-27T00:48:49.198Z,2.70
2022-12-27T00:51:21.805Z,2.50
2022-12-27T00:53:49.982Z,2.30
2022-12-27T00:56:22.986Z,2.80
2022-12-27T00:59:11.042Z,2.45
2022-12-27T01:01:39.393Z,2.78
2022-12-27T01:04:06.646Z,2.80
2022-12-27T01:06:34.958Z,2.85
2022-12-27T01:09:03.823Z,2.90
2022-12-27T01:11:31.725Z,3.10
2022-12-27T01:14:00.699Z,2.90
2022-12-27T01:16:29.193Z,3.30
2022-12-27T01:18:56.253Z,2.80
2022-12-27T01:21:25.054Z,2.80
2022-12-27T01:23:51.990Z,3.38
2022-12-27T01:26:21.010Z,3.30
2022-12-27T01:28:48.609Z,3.20
2022-12-27T01:31:20.168Z,3.00
2022-12-27T01:33:47.794Z,3.10
2022-12-27T01:36:22.314Z,3.17
2022-12-27T01:38:49.793Z,3.65
2022-12-27T01:41:40.288Z,3.58
2022-12-27T01:44:49.075Z,3.20
2022-12-27T01:47:34.804Z,3.28
2022-12-27T01:50:16.797Z,3.50
2022-12-27T01:52:56.613Z,3.58
2022-12-27T01:55:27.605Z,3.80
2022-12-27T01:58:05.418Z,3.97
2022-12-27T02:00:32.409Z,3.97
2022-12-27T02:03:01.297Z,4.20
2022-12-27T02:05:28.873Z,4.20
2022-12-27T02:08:08.377Z,4.18
2022-12-27T02:10:35.467Z,4.22
2022-12-27T02:13:04.645Z,3.88
2022-12-27T02:15:31.516Z,3.80
2022-12-27T02:17:58.577Z,3.60
2022-12-27T02:20:27.108Z,3.90
2022-12-27T02:23:15.325Z,3.75
2022-12-27T02:25:51.333Z,4.38
2022-12-27T02:28:33.290Z,4.30
2022-12-27T02:31:08.020Z,4.22
2022-12-27T02:33:42.059Z,4.43
2022-12-27T02:36:15.901Z,4.45
2022-12-27T02:38:48.107Z,4.70
2022-12-27T02:41:34.950Z,4.38
2022-12-27T02:44:20.364Z,5.22
2022-12-27T02:47:06.800Z,4.70
2022-12-27T02:49:53.140Z,4.88
2022-12-27T02:53:07.887Z,5.00
2022-12-27T02:56:31.317Z,5.28
2022-12-27T02:59:30.211Z,4.63
2022-12-27T03:02:49.336Z,5.05
2022-12-27T03:06:11.586Z,5.05
2022-12-27T03:08:58.506Z,5.10
2022-12-27T03:11:49.664Z,5.53
2022-12-27T03:14:42.200Z,5.75
2022-12-27T03:17:20.589Z,6.32
2022-12-27T03:20:13.304Z,5.78
2022-12-27T03:23:01.020Z,6.22
2022-12-27T03:25:29.794Z,7.97
2022-12-27T03:28:28.105Z,8.00
2022-12-27T03:31:25.746Z,8.60
2022-12-27T03:34:04.652Z,9.13
2022-12-27T03:36:52.875Z,9.50
2022-12-27T03:39:31.208Z,8.60
2022-12-27T03:42:22.112Z,8.18
2022-12-27T03:44:49.393Z,7.53
2022-12-27T03:47:33.667Z,7.20
2022-12-27T03:50:20.738Z,7.28
2022-12-27T03:52:51.706Z,8.68
2022-12-27T03:55:18.990Z,9.57
2022-12-27T03:57:45.926Z,11.10
2022-12-27T04:00:13.253Z,11.48
2022-12-27T04:02:40.443Z,11.25
2022-12-27T04:05:08.377Z,9.27
2022-12-27T04:07:35.557Z,9.75
2022-12-27T04:10:20.858Z,9.38
2022-12-27T04:13:06.146Z,8.48
2022-12-27T04:15:51.437Z,7.03
2022-12-27T04:18:36.818Z,7.00
2022-12-27T04:21:22.184Z,6.93
2022-12-27T04:24:07.383Z,7.45
2022-12-27T04:26:52.817Z,7.15
2022-12-27T04:29:37.873Z,7.60
2022-12-27T04:32:23.175Z,9.30
2022-12-27T04:34:49.863Z,11.40
2022-12-27T04:37:18.657Z,10.95
2022-12-27T04:40:07.126Z,11.85
2022-12-27T04:42:52.183Z,11.55
2022-12-27T04:45:37.676Z,11.52
2022-12-27T04:48:23.422Z,10.90
2022-12-27T04:51:08.660Z,9.73
2022-12-27T04:53:54.046Z,10.52
2022-12-27T04:56:20.675Z,9.32
2022-12-27T04:59:06.169Z,8.02
2022-12-27T05:01:51.657Z,7.85
2022-12-27T05:04:18.707Z,8.18
2022-12-27T05:06:45.544Z,7.93
2022-12-27T05:09:31.205Z,7.70
2022-12-27T05:12:16.473Z,8.95
2022-12-27T05:14:43.188Z,8.20
2022-12-27T05:17:12.205Z,9.15
2022-12-27T05:19:39.005Z,8.75
2022-12-27T05:22:24.245Z,9.40
2022-12-27T05:25:09.560Z,10.77
2022-12-27T05:27:37.377Z,10.70
2022-12-27T05:30:04.802Z,9.65
2022-12-27T05:32:31.607Z,8.43
2022-12-27T05:34:58.319Z,10.07
2022-12-27T05:37:25.107Z,7.63
2022-12-27T05:39:51.842Z,8.52
2022-12-27T05:42:18.617Z,7.47
2022-12-27T05:44:45.453Z,7.05
2022-12-27T05:47:12.223Z,6.63
2022-12-27T05:49:39.521Z,6.38
2022-12-27T05:52:06.329Z,6.55
2022-12-27T05:54:33.068Z,6.80
2022-12-27T05:56:59.853Z,8.50
2022-12-27T05:59:26.833Z,10.18
2022-12-27T06:01:53.642Z,11.50
2022-12-27T06:04:20.454Z,13.25
2022-12-27T06:06:47.173Z,15.35
2022-12-27T06:09:14.326Z,14.50
2022-12-27T06:11:41.105Z,16.50
2022-12-27T06:14:07.884Z,16.60
2022-12-27T06:16:34.720Z,17.67
2022-12-27T06:19:01.421Z,17.25
2022-12-27T06:21:28.213Z,16.88
2022-12-27T06:23:55.006Z,13.90
2022-12-27T06:26:24.143Z,14.43
2022-12-27T06:28:51.999Z,14.18
2022-12-27T06:31:20.102Z,12.68
2022-12-27T06:33:48.410Z,12.65
2022-12-27T06:36:17.589Z,13.57
2022-12-27T06:38:44.863Z,13.68
2022-12-27T06:41:13.749Z,13.98
2022-12-27T06:43:41.274Z,14.93
2022-12-27T06:46:17.029Z,13.50
2022-12-27T06:48:51.420Z,9.88
2022-12-27T06:51:20.634Z,8.63
2022-12-27T06:53:47.927Z,8.70
2022-12-27T06:56:17.795Z,8.48
2022-12-27T06:58:45.910Z,9.02
2022-12-27T07:01:25.263Z,8.43
2022-12-27T07:03:57.176Z,8.23
2022-12-27T07:06:25.130Z,8.07
2022-12-27T07:08:52.923Z,7.43
2022-12-27T07:11:25.804Z,8.00
2022-12-27T07:13:55.327Z,7.18
2022-12-27T07:16:25.277Z,7.50
2022-12-27T07:18:54.300Z,7.90
2022-12-27T07:21:24.328Z,7.97
2022-12-27T07:23:52.001Z,7.85
2022-12-27T07:26:30.595Z,7.20
2022-12-27T07:28:59.662Z,6.63
2022-12-27T07:31:29.795Z,8.40
2022-12-27T07:36:27.510Z,6.38
2022-12-27T07:41:22.326Z,5.60
2022-12-27T07:43:49.151Z,6.40
2022-12-27T07:46:17.473Z,7.88
2022-12-27T07:48:44.962Z,7.43
2022-12-27T07:51:12.209Z,7.63
2022-12-27T07:53:39.377Z,9.30
2022-12-27T07:56:20.164Z,30.25
2022-12-27T07:58:51.175Z,26.48
2022-12-27T08:01:20.184Z,19.25
2022-12-27T08:03:47.720Z,12.63
2022-12-27T08:06:31.429Z,7.45
2022-12-27T08:09:03.244Z,9.98
2022-12-27T08:11:31.107Z,7.90
2022-12-27T08:13:58.401Z,6.97
2022-12-27T08:16:26.967Z,6.45
2022-12-27T08:18:54.261Z,7.35
2022-12-27T08:21:21.216Z,6.18
2022-12-27T08:23:48.142Z,5.88
2022-12-27T08:26:15.734Z,7.25
2022-12-27T08:28:42.891Z,6.70
2022-12-27T08:31:11.245Z,7.35
2022-12-27T08:33:39.081Z,5.30
2022-12-27T08:38:55.659Z,5.30
2022-12-27T08:41:23.198Z,4.72
2022-12-27T08:43:50.258Z,4.57
2022-12-27T08:46:19.299Z,4.93
2022-12-27T08:48:51.177Z,4.47
2022-12-27T08:51:31.254Z,4.55
2022-12-27T08:54:00.411Z,4.45
2022-12-27T08:56:27.263Z,4.10
2022-12-27T08:58:54.224Z,4.38
2022-12-27T09:01:21.280Z,4.68
2022-12-27T09:03:48.219Z,4.93
2022-12-27T09:06:18.443Z,5.57
2022-12-27T09:08:47.488Z,4.93
2022-12-27T09:11:17.284Z,4.63
2022-12-27T09:13:44.173Z,3.67
2022-12-27T09:16:14.224Z,4.20
2022-12-27T09:18:42.712Z,4.10
2022-12-27T09:21:13.502Z,3.60
2022-12-27T09:23:41.411Z,3.90
2022-12-27T09:26:12.710Z,3.67
2022-12-27T09:28:40.599Z,3.03
2022-12-27T09:31:09.928Z,3.20
2022-12-27T09:33:37.170Z,3.03
2022-12-27T09:36:12.976Z,2.50
2022-12-27T09:38:41.449Z,2.70
2022-12-27T09:42:33.157Z,2.70
2022-12-27T09:44:36.503Z,2.33
2022-12-27T09:47:12.865Z,2.50
2022-12-27T09:49:47.061Z,2.65
2022-12-27T09:52:22.229Z,2.50
2022-12-27T09:55:02.610Z,2.40
2022-12-27T09:57:41.906Z,2.30
2022-12-27T10:00:34.176Z,2.42
2022-12-27T10:03:06.415Z,2.25
2022-12-27T10:05:37.167Z,2.10
2022-12-27T10:08:30.661Z,2.08
2022-12-27T10:11:12.297Z,2.05
2022-12-27T10:14:01.529Z,1.98
2022-12-27T10:16:28.341Z,1.38
2022-12-27T10:19:26.088Z,1.63
2022-12-27T10:22:15.896Z,1.80
2022-12-27T10:24:56.494Z,1.70
2022-12-27T10:27:29.917Z,1.60
2022-12-27T10:29:59.388Z,1.50
2022-12-27T10:32:26.786Z,2.67
2022-12-27T10:35:00.208Z,1.75
2022-12-27T10:37:27.965Z,1.75
2022-12-27T10:40:01.057Z,1.42
2022-12-27T10:42:37.331Z,1.38
2022-12-27T10:45:39.085Z,1.80
2022-12-27T10:48:12.018Z,1.50
2022-12-27T10:50:40.060Z,1.50
2022-12-27T10:53:27.687Z,1.40
2022-12-27T10:56:13.182Z,1.40
2022-12-27T10:58:58.493Z,1.42
2022-12-27T11:01:28.520Z,1.85
2022-12-27T11:04:24.111Z,1.70
2022-12-27T11:07:05.046Z,1.30
2022-12-27T11:09:41.474Z,1.65
2022-12-27T11:12:32.886Z,1.60
2022-12-27T11:15:00.929Z,1.60
2022-12-27T11:17:41.301Z,1.67
2022-12-27T11:20:33.379Z,1.30
2022-12-27T11:23:02.344Z,1.20
2022-12-27T11:25:30.634Z,1.20
2022-12-27T11:28:32.017Z,1.30
2022-12-27T11:31:03.875Z,1.20
2022-12-27T11:33:39.921Z,1.50
2022-12-27T11:36:12.509Z,1.15
2022-12-27T11:38:44.615Z,1.20
2022-12-27T11:41:34.107Z,1.50
2022-12-27T11:44:19.195Z,1.30
2022-12-27T11:47:12.899Z,1.30
2022-12-27T11:49:57.821Z,1.20
2022-12-27T11:52:27.394Z,1.48
2022-12-27T11:55:24.523Z,1.20
2022-12-27T11:58:06.526Z,1.20
2022-12-27T12:01:05.881Z,1.08
2022-12-27T12:04:03.743Z,1.10
2022-12-27T12:06:55.221Z,1.05
2022-12-27T12:09:27.831Z,1.15
2022-12-27T12:12:19.739Z,1.13
2022-12-27T12:15:23.564Z,0.90
2022-12-27T12:18:31.020Z,1.02
2022-12-27T12:21:19.645Z,0.90
2022-12-27T12:24:07.795Z,1.20
2022-12-27T12:26:55.664Z,0.90
2022-12-27T12:29:34.681Z,1.00
2022-12-27T12:32:01.532Z,1.17
2022-12-27T12:34:44.747Z,0.90
2022-12-27T12:37:22.244Z,1.00
2022-12-27T12:40:19.767Z,1.40
2022-12-27T12:43:01.174Z,0.82
2022-12-27T12:45:46.699Z,1.40
2022-12-27T12:48:29.482Z,0.95
2022-12-27T12:50:59.200Z,1.30
2022-12-27T12:54:02.560Z,1.00
2022-12-27T12:56:44.579Z,1.20
2022-12-27T12:59:53.956Z,1.08
2022-12-27T13:02:35.801Z,0.90
2022-12-27T13:05:22.982Z,0.80
2022-12-27T13:08:04.817Z,0.90
2022-12-27T13:10:51.756Z,1.00
2022-12-27T13:13:41.835Z,1.10
2022-12-27T13:16:17.011Z,1.00
2022-12-27T13:19:04.979Z,1.10
2022-12-27T13:21:48.232Z,1.20
2022-12-27T13:24:15.098Z,1.13
2022-12-27T13:26:54.993Z,1.23
2022-12-27T13:29:38.491Z,0.95
2022-12-27T13:32:11.555Z,1.38
2022-12-27T13:34:38.326Z,1.50
2022-12-27T13:37:11.036Z,1.23
2022-12-27T13:39:55.288Z,1.30
2022-12-27T13:42:40.934Z,1.15
2022-12-27T13:45:37.915Z,1.02
2022-12-27T13:48:22.934Z,1.35
2022-12-27T13:51:27.958Z,1.20
2022-12-27T13:54:33.422Z,2.00
2022-12-27T13:57:21.856Z,1.33
2022-12-27T14:00:21.162Z,1.10
2022-12-27T14:03:11.986Z,1.27
2022-12-27T14:05:41.863Z,1.40
2022-12-27T14:08:50.887Z,1.42
2022-12-27T14:11:32.536Z,1.30
2022-12-27T14:14:00.745Z,1.48
2022-12-27T14:16:46.087Z,1.58
2022-12-27T14:19:24.149Z,1.38
2022-12-27T14:22:09.965Z,1.50
2022-12-27T14:25:24.978Z,1.30
2022-12-27T14:28:13.595Z,1.35
2022-12-27T14:31:20.251Z,1.40
2022-12-27T14:33:59.433Z,1.27
2022-12-27T14:36:44.667Z,1.40
2022-12-27T14:39:32.535Z,1.50
2022-12-27T14:42:38.229Z,1.40
2022-12-27T14:45:29.634Z,1.30
2022-12-27T14:48:17.630Z,1.30
2022-12-27T14:51:19.785Z,1.55
2022-12-27T14:53:56.613Z,1.45
2022-12-27T14:57:00.926Z,1.50
2022-12-27T14:59:41.398Z,1.40
2022-12-27T15:05:23.706Z,1.15
2022-12-27T15:08:27.969Z,1.25
2022-12-27T15:10:57.878Z,1.30
2022-12-27T15:13:50.862Z,1.27
2022-12-27T15:16:51.534Z,1.42
2022-12-27T15:22:26.656Z,1.10
2022-12-27T15:25:08.656Z,1.30
2022-12-27T15:28:18.844Z,1.30
2022-12-27T15:31:07.228Z,1.23
2022-12-27T15:33:55.591Z,1.35
2022-12-27T15:36:38.500Z,1.25
2022-12-27T15:39:05.890Z,1.10
2022-12-27T15:42:04.637Z,1.00
2022-12-27T15:44:40.321Z,1.20
2022-12-27T15:47:32.962Z,1.30
2022-12-27T15:50:15.315Z,1.15
2022-12-27T15:53:08.619Z,1.10
2022-12-27T15:55:50.257Z,1.10
2022-12-27T15:58:20.403Z,1.10
2022-12-27T16:01:21.814Z,1.10
2022-12-27T16:03:53.578Z,1.10
2022-12-27T16:06:35.863Z,1.10
2022-12-27T16:09:23.991Z,1.00
2022-12-27T16:12:03.201Z,1.00
2022-12-27T16:14:33.679Z,2.30
2022-12-27T16:19:50.801Z,1.00
2022-12-27T16:22:25.342Z,1.20
2022-12-27T16:24:52.373Z,1.00
2022-12-27T16:27:30.016Z,1.20
2022-12-27T16:29:57.975Z,1.00
2022-12-27T16:32:28.250Z,1.10
2022-12-27T16:35:10.551Z,1.10
2022-12-27T16:37:45.444Z,1.10
2022-12-27T16:40:22.480Z,1.00
2022-12-27T16:42:49.212Z,0.98
2022-12-27T16:45:37.823Z,1.08
2022-12-27T16:48:22.716Z,0.82
2022-12-27T16:50:55.354Z,1.00
2022-12-27T16:53:40.041Z,0.90
2022-12-27T16:56:28.026Z,1.10
2022-12-27T16:58:54.898Z,0.80
2022-12-27T17:01:29.073Z,0.90
2022-12-27T17:03:57.382Z,0.80
2022-12-27T17:06:33.044Z,1.20
2022-12-27T17:09:09.575Z,0.70
2022-12-27T17:11:38.679Z,0.80
2022-12-27T17:14:17.152Z,0.90
2022-12-27T17:16:50.640Z,0.88
2022-12-27T17:19:20.609Z,0.80
2022-12-27T17:21:55.134Z,0.90
2022-12-27T17:24:23.109Z,0.90
2022-12-27T17:26:55.822Z,0.70
2022-12-27T17:29:31.776Z,1.00
2022-12-27T17:32:04.581Z,0.90
2022-12-27T17:35:05.216Z,1.10
2022-12-27T17:37:38.618Z,0.98
2022-12-27T17:40:17.061Z,1.10
2022-12-27T17:43:17.892Z,1.20
2022-12-27T17:45:55.996Z,1.10
2022-12-27T17:48:29.446Z,1.00
2022-12-27T17:51:02.143Z,1.20
2022-12-27T17:53:48.025Z,1.20
2022-12-27T17:56:42.128Z,1.10
2022-12-27T17:59:24.845Z,1.23
2022-12-27T18:01:55.412Z,1.20
2022-12-27T18:04:33.738Z,1.40
2022-12-27T18:07:07.656Z,1.20
2022-12-27T18:09:44.079Z,1.40
2022-12-27T18:12:32.808Z,1.30
2022-12-27T18:15:04.424Z,1.30
2022-12-27T18:17:51.316Z,1.60
2022-12-27T18:20:28.849Z,1.27
2022-12-27T18:23:01.637Z,1.38
2022-12-27T18:25:48.746Z,1.13
2022-12-27T18:28:18.590Z,1.42
2022-12-27T18:31:02.543Z,1.27
2022-12-27T18:33:54.787Z,1.20
2022-12-27T18:36:44.672Z,1.20
2022-12-27T18:39:28.818Z,2.13
2022-12-27T18:41:57.512Z,1.02
2022-12-27T18:44:27.902Z,1.58
2022-12-27T18:49:33.836Z,1.13
2022-12-27T18:52:02.487Z,1.30
2022-12-27T18:54:29.208Z,1.30
2022-12-27T18:56:58.079Z,1.50
2022-12-27T18:59:40.829Z,1.38
2022-12-27T19:02:34.764Z,1.30
2022-12-27T19:05:19.527Z,1.50
2022-12-27T19:07:52.582Z,1.40
2022-12-27T19:10:23.085Z,2.88
2022-12-27T19:12:52.220Z,2.20
2022-12-27T19:15:28.986Z,1.70
2022-12-27T19:18:02.257Z,1.55
2022-12-27T19:20:32.870Z,1.60
2022-12-27T19:23:02.694Z,1.42
2022-12-27T19:25:36.568Z,1.40
2022-12-27T19:28:12.265Z,1.60
2022-12-27T19:31:06.002Z,1.60
2022-12-27T19:33:35.323Z,2.20
2022-12-27T19:36:07.413Z,1.90
2022-12-27T19:38:34.518Z,1.42
2022-12-27T19:41:04.180Z,1.42
2022-12-27T19:43:38.289Z,1.70
2022-12-27T19:46:05.483Z,1.73
2022-12-27T19:48:32.733Z,1.60
2022-12-27T19:51:00.019Z,1.55
2022-12-27T19:53:38.531Z,1.70
2022-12-27T19:56:08.143Z,1.60
2022-12-27T19:58:35.440Z,1.45
2022-12-27T20:01:02.675Z,1.65
2022-12-27T20:03:29.742Z,2.80
2022-12-27T20:06:12.474Z,4.30
2022-12-27T20:08:48.875Z,1.80
2022-12-27T20:11:22.738Z,2.08
2022-12-27T20:13:50.013Z,1.83
2022-12-27T20:16:18.567Z,1.88
2022-12-27T20:18:46.732Z,1.70
2022-12-27T20:21:15.527Z,1.60
2022-12-27T20:23:46.208Z,1.90
2022-12-27T20:26:16.514Z,3.17
2022-12-27T20:28:44.293Z,2.95
2022-12-27T20:31:15.040Z,1.73
2022-12-27T20:33:42.338Z,1.90
2022-12-27T20:36:10.229Z,1.80
2022-12-27T20:38:40.705Z,1.98
2022-12-27T20:43:42.637Z,1.75
2022-12-27T20:46:15.273Z,2.05
2022-12-27T20:48:44.423Z,1.90
2022-12-27T20:51:19.330Z,1.70
2022-12-27T20:53:50.308Z,2.00
2022-12-27T20:56:17.432Z,1.80
2022-12-27T20:58:44.449Z,1.90
2022-12-27T21:01:14.750Z,2.10
2022-12-27T21:03:42.410Z,1.90
2022-12-27T21:06:15.578Z,1.85
2022-12-27T21:08:47.925Z,2.92
2022-12-27T21:11:27.127Z,2.40
2022-12-27T21:13:55.043Z,2.05
2022-12-27T21:16:24.699Z,1.88
2022-12-27T21:18:52.203Z,1.85
2022-12-27T21:21:21.654Z,1.85
2022-12-27T21:23:49.175Z,1.77
2022-12-27T21:26:18.729Z,1.70
2022-12-27T21:28:45.985Z,1.83
2022-12-27T21:31:13.925Z,1.80
2022-12-27T21:33:40.935Z,1.90
2022-12-27T21:36:12.149Z,1.88
2022-12-27T21:38:39.516Z,1.67
2022-12-27T21:41:07.751Z,1.80
2022-12-27T21:43:34.784Z,1.70
2022-12-27T21:46:07.361Z,1.80
2022-12-27T21:48:34.907Z,1.95
2022-12-27T21:51:07.034Z,1.90
2022-12-27T21:53:34.711Z,1.67
2022-12-27T21:56:01.863Z,1.70
2022-12-27T21:58:33.477Z,1.63
2022-12-27T22:01:28.164Z,4.25
2022-12-27T22:03:56.423Z,3.90
2022-12-27T22:06:43.262Z,1.88
2022-12-27T22:09:13.542Z,1.70
2022-12-27T22:11:40.475Z,1.90
2022-12-27T22:14:07.599Z,1.70
2022-12-27T22:16:37.086Z,1.90
2022-12-27T22:19:09.543Z,1.80
2022-12-27T22:21:37.626Z,1.90
2022-12-27T22:24:05.587Z,1.60
2022-12-27T22:26:37.173Z,1.80
2022-12-27T22:29:06.928Z,1.83
2022-12-27T22:31:38.331Z,1.90
2022-12-27T22:34:06.675Z,1.77
2022-12-27T22:36:34.355Z,1.70
2022-12-27T22:39:01.680Z,1.50
2022-12-27T22:41:31.078Z,1.85
2022-12-27T22:44:04.272Z,1.67
2022-12-27T22:46:58.715Z,1.70
2022-12-27T22:49:18.919Z,1.50
2022-12-27T22:51:45.808Z,1.30
2022-12-27T22:54:12.573Z,1.45
2022-12-27T22:56:41.859Z,1.60
2022-12-27T22:59:13.784Z,1.65
2022-12-27T23:01:42.305Z,1.40
2022-12-27T23:04:12.068Z,1.50
2022-12-27T23:06:40.109Z,1.45
2022-12-27T23:09:07.983Z,1.40
2022-12-27T23:11:37.870Z,1.33
2022-12-27T23:14:16.127Z,1.38
2022-12-27T23:16:45.813Z,1.50
2022-12-27T23:19:15.407Z,1.48
2022-12-27T23:21:42.379Z,1.30
2022-12-27T23:24:09.933Z,1.30
2022-12-27T23:26:37.193Z,1.40
2022-12-27T23:29:05.037Z,1.10
2022-12-27T23:31:32.339Z,1.30
2022-12-27T23:33:59.815Z,1.60
2022-12-27T23:36:26.627Z,1.40
2022-12-27T23:38:53.525Z,1.45
2022-12-27T23:41:24.847Z,1.30
2022-12-27T23:43:55.005Z,1.30
2022-12-27T23:46:31.038Z,1.40
2022-12-27T23:49:00.756Z,1.40
2022-12-27T23:51:28.774Z,1.20
2022-12-27T23:53:56.049Z,1.20
2022-12-27T23:56:28.538Z,1.30
2022-12-27T23:58:57.798Z,1.20
